createdAt,value
2018-02-03T00:00:51.714Z,99641.11
2018-02-03T00:03:21.329Z,99641.57
2018-02-03T00:05:50.897Z,99634.13
2018-02-03T00:08:20.567Z,99632.38
2018-02-03T00:10:49.926Z,99629.77
2018-02-03T00:13:19.453Z,99624.99
2018-02-03T00:15:49.084Z,99617.08
2018-02-03T00:18:18.622Z,99623.12
2018-02-03T00:20:47.117Z,99620.92
2018-02-03T00:23:15.604Z,99617.02
2018-02-03T00:25:44.060Z,99623.92
2018-02-03T00:28:12.862Z,99622.16
2018-02-03T00:30:41.881Z,99623.92
2018-02-03T00:33:10.324Z,99620.43
2018-02-03T00:35:38.909Z,99624.85
2018-02-03T00:38:07.357Z,99619.62
2018-02-03T00:40:36.384Z,99624.06
2018-02-03T00:43:04.849Z,99631.55
2018-02-03T00:45:33.289Z,99622.54
2018-02-03T00:48:02.398Z,99628.20
2018-02-03T00:50:31.557Z,99633.00
2018-02-03T00:53:00.221Z,99629.52
2018-02-03T00:55:29.882Z,99632.12
2018-02-03T00:57:59.132Z,99626.85
2018-02-03T01:00:28.601Z,99624.72
2018-02-03T01:02:57.756Z,99627.72
2018-02-03T01:05:26.544Z,99629.45
2018-02-03T01:07:55.246Z,99628.98
2018-02-03T01:10:24.472Z,99626.38
2018-02-03T01:12:54.812Z,99625.47
2018-02-03T01:15:24.101Z,99620.29
2018-02-03T01:17:53.268Z,99621.98
2018-02-03T01:20:22.687Z,99618.92
2018-02-03T01:22:52.518Z,99624.12
2018-02-03T01:25:22.629Z,99617.61
2018-02-03T01:27:51.762Z,99613.70
2018-02-03T01:30:20.229Z,99620.25
2018-02-03T01:32:48.959Z,99621.59
2018-02-03T01:35:18.089Z,99621.12
2018-02-03T01:37:47.872Z,99611.11
2018-02-03T01:40:17.331Z,99605.02
2018-02-03T01:42:45.810Z,99609.34
2018-02-03T01:45:14.251Z,99606.69
2018-02-03T01:47:53.952Z,99613.31
2018-02-03T01:50:22.393Z,99610.24
2018-02-03T01:52:51.233Z,99606.39
2018-02-03T01:55:19.697Z,99609.81
2018-02-03T01:57:48.182Z,99607.20
2018-02-03T02:00:16.663Z,99604.14
2018-02-03T02:02:45.431Z,99605.86
2018-02-03T02:05:13.909Z,99605.48
2018-02-03T02:07:42.389Z,99603.26
2018-02-03T02:10:11.506Z,99603.75
2018-02-03T02:12:39.979Z,99602.39
2018-02-03T02:15:08.460Z,99601.90
2018-02-03T02:17:36.953Z,99599.73
2018-02-03T02:20:05.416Z,99597.16
2018-02-03T02:22:33.908Z,99598.52
2018-02-03T02:25:02.354Z,99598.86
2018-02-03T02:27:31.282Z,99602.77
2018-02-03T02:30:00.696Z,99595.30
2018-02-03T02:32:29.918Z,99595.03
2018-02-03T02:34:58.355Z,99598.53
2018-02-03T02:37:26.802Z,99595.93
2018-02-03T02:39:55.664Z,99599.39
2018-02-03T02:42:24.105Z,99595.93
2018-02-03T02:44:52.546Z,99597.62
2018-02-03T02:47:21.071Z,99594.94
2018-02-03T02:49:49.566Z,99595.80
2018-02-03T02:52:18.011Z,99598.41
2018-02-03T02:54:46.511Z,99592.32
2018-02-03T02:57:14.943Z,99588.83
2018-02-03T02:59:44.095Z,99587.59
2018-02-03T03:02:12.525Z,99587.20
2018-02-03T03:04:41.067Z,99588.11
2018-02-03T03:07:09.503Z,99579.39
2018-02-03T03:09:38.415Z,99578.52
2018-02-03T03:12:06.899Z,99574.66
2018-02-03T03:14:35.328Z,99573.71
2018-02-03T03:17:03.764Z,99578.98
2018-02-03T03:19:32.197Z,99581.97
2018-02-03T03:22:00.728Z,99576.25
2018-02-03T03:24:29.155Z,99583.61
2018-02-03T03:26:57.594Z,99583.60
2018-02-03T03:29:26.195Z,99582.67
2018-02-03T03:31:54.626Z,99583.52
2018-02-03T03:34:23.073Z,99584.39
2018-02-03T03:36:51.516Z,99586.69
2018-02-03T03:39:19.980Z,99589.71
2018-02-03T03:41:48.411Z,99585.94
2018-02-03T03:44:16.850Z,99586.74
2018-02-03T03:46:45.296Z,99591.42
2018-02-03T03:49:14.116Z,99586.55
2018-02-03T03:51:42.623Z,99592.73
2018-02-03T03:54:11.067Z,99588.38
2018-02-03T03:56:39.516Z,99587.11
2018-02-03T03:59:08.060Z,99580.47
2018-02-03T04:01:36.496Z,99587.09
2018-02-03T04:04:05.428Z,99584.38
2018-02-03T04:06:33.868Z,99590.27
2018-02-03T04:09:02.748Z,99585.00
2018-02-03T04:11:31.959Z,99579.34
2018-02-03T04:14:00.817Z,99575.45
2018-02-03T04:16:29.295Z,99580.28
2018-02-03T04:18:57.725Z,99582.91
2018-02-03T04:21:26.221Z,99586.72
2018-02-03T04:23:54.704Z,99584.05
2018-02-03T04:26:23.163Z,99588.83
2018-02-03T04:28:51.991Z,99581.36
2018-02-03T04:31:20.440Z,99585.28
2018-02-03T04:33:48.876Z,99585.02
2018-02-03T04:36:17.310Z,99588.52
2018-02-03T04:38:45.746Z,99582.97
2018-02-03T04:41:14.174Z,99587.32
2018-02-03T04:43:42.607Z,99580.80
2018-02-03T04:46:11.047Z,99579.88
2018-02-03T04:48:39.520Z,99578.91
2018-02-03T04:51:07.964Z,99579.02
2018-02-03T04:53:36.383Z,99596.48
2018-02-03T04:56:04.820Z,99586.52
2018-02-03T04:58:33.645Z,99589.53
2018-02-03T05:01:02.076Z,99583.41
2018-02-03T05:03:30.504Z,99585.58
2018-02-03T05:05:58.952Z,99589.13
2018-02-03T05:08:27.871Z,99590.00
2018-02-03T05:10:56.319Z,99587.75
2018-02-03T05:13:25.151Z,99591.66
2018-02-03T05:15:53.581Z,99591.62
2018-02-03T05:18:22.102Z,99592.97
2018-02-03T05:20:50.543Z,99586.88
2018-02-03T05:23:18.988Z,99590.36
2018-02-03T05:25:47.436Z,99587.70
2018-02-03T05:28:15.896Z,99592.48
2018-02-03T05:30:44.747Z,99596.34
2018-02-03T05:33:13.175Z,99596.44
2018-02-03T05:35:42.099Z,99597.34
2018-02-03T05:38:10.563Z,99596.48
2018-02-03T05:40:38.976Z,99596.51
2018-02-03T05:43:07.407Z,99603.06
2018-02-03T05:45:36.219Z,99600.44
2018-02-03T05:48:04.709Z,99602.63
2018-02-03T05:50:33.131Z,99606.08
2018-02-03T05:53:01.580Z,99606.91
2018-02-03T05:55:30.007Z,99603.45
2018-02-03T05:57:59.002Z,99616.91
2018-02-03T06:00:27.831Z,99608.61
2018-02-03T06:02:56.264Z,99610.73
2018-02-03T06:05:24.704Z,99614.59
2018-02-03T06:07:53.179Z,99610.27
2018-02-03T06:10:21.635Z,99614.19
2018-02-03T06:12:50.069Z,99619.81
2018-02-03T06:15:18.509Z,99625.47
2018-02-03T06:17:46.984Z,99627.24
2018-02-03T06:20:15.415Z,99628.94
2018-02-03T06:22:43.959Z,99631.20
2018-02-03T06:25:12.430Z,99644.69
2018-02-03T06:27:40.937Z,99641.19
2018-02-03T06:30:09.372Z,99637.74
2018-02-03T06:32:37.831Z,99634.27
2018-02-03T06:35:06.376Z,99632.94
2018-02-03T06:37:34.836Z,99638.58
2018-02-03T06:40:03.322Z,99643.36
2018-02-03T06:42:31.743Z,99646.89
2018-02-03T06:45:00.201Z,99651.22
2018-02-03T06:47:28.721Z,99644.28
2018-02-03T06:49:57.652Z,99649.48
2018-02-03T06:52:26.139Z,99654.28
2018-02-03T06:54:54.624Z,99655.14
2018-02-03T06:57:23.096Z,99656.45
2018-02-03T06:59:51.594Z,99661.20
2018-02-03T07:02:20.035Z,99655.14
2018-02-03T07:04:48.860Z,99654.28
2018-02-03T07:07:17.323Z,99658.61
2018-02-03T07:09:45.767Z,99662.52
2018-02-03T07:12:15.388Z,99666.84
2018-02-03T07:14:44.223Z,99672.03
2018-02-03T07:17:12.643Z,99665.13
2018-02-03T07:19:41.092Z,99672.05
2018-02-03T07:22:09.520Z,99661.20
2018-02-03T07:24:38.339Z,99665.55
2018-02-03T07:27:06.828Z,99668.99
2018-02-03T07:29:35.264Z,99676.81
2018-02-03T07:32:04.099Z,99667.29
2018-02-03T07:34:32.516Z,99672.06
2018-02-03T07:37:00.956Z,99676.41
2018-02-03T07:39:29.553Z,99670.75
2018-02-03T07:41:57.984Z,99677.70
2018-02-03T07:44:26.808Z,99675.11
2018-02-03T07:46:55.281Z,99681.18
2018-02-03T07:49:23.721Z,99683.30
2018-02-03T07:51:52.553Z,99685.95
2018-02-03T07:54:20.987Z,99690.71
2018-02-03T07:56:49.528Z,99685.04
2018-02-03T07:59:18.104Z,99684.98
2018-02-03T08:01:46.540Z,99687.16
2018-02-03T08:04:15.480Z,99691.03
2018-02-03T08:06:44.768Z,99691.89
2018-02-03T08:09:13.199Z,99692.28
2018-02-03T08:11:41.629Z,99697.13
2018-02-03T08:14:10.137Z,99693.64
2018-02-03T08:16:38.692Z,99694.59
2018-02-03T08:19:07.188Z,99693.32
2018-02-03T08:21:35.657Z,99703.75
2018-02-03T08:24:04.094Z,99696.81
2018-02-03T08:26:32.520Z,99696.36
2018-02-03T08:29:00.991Z,99698.13
2018-02-03T08:31:29.411Z,99702.45
2018-02-03T08:33:57.856Z,99712.03
2018-02-03T08:36:26.326Z,99707.23
2018-02-03T08:38:54.743Z,99703.34
2018-02-03T08:41:23.120Z,99706.79
2018-02-03T08:43:51.466Z,99697.70
2018-02-03T08:46:20.203Z,99711.55
2018-02-03T08:48:48.536Z,99704.08
2018-02-03T08:51:16.922Z,99703.30
2018-02-03T08:53:45.382Z,99705.43
2018-02-03T08:56:14.115Z,99705.88
2018-02-03T08:58:42.460Z,99708.09
2018-02-03T09:01:10.878Z,99702.01
2018-02-03T09:03:39.255Z,99706.34
2018-02-03T09:06:07.623Z,99710.70
2018-02-03T09:08:35.981Z,99703.32
2018-02-03T09:11:04.352Z,99706.38
2018-02-03T09:13:32.688Z,99707.67
2018-02-03T09:16:01.040Z,99711.52
2018-02-03T09:18:29.421Z,99710.64
2018-02-03T09:20:57.800Z,99718.47
2018-02-03T09:23:26.137Z,99717.22
2018-02-03T09:25:54.559Z,99726.31
2018-02-03T09:28:23.019Z,99721.13
2018-02-03T09:30:51.430Z,99721.13
2018-02-03T09:33:19.811Z,99728.94
2018-02-03T09:35:48.211Z,99727.20
2018-02-03T09:38:16.655Z,99730.68
2018-02-03T09:40:44.992Z,99732.78
2018-02-03T09:43:13.800Z,99733.28
2018-02-03T09:45:42.146Z,99724.59
2018-02-03T09:48:10.892Z,99729.35
2018-02-03T09:50:39.246Z,99731.02
2018-02-03T09:53:07.628Z,99725.39
2018-02-03T09:55:36.884Z,99729.32
2018-02-03T09:58:05.327Z,99734.08
2018-02-03T10:00:33.751Z,99729.27
2018-02-03T10:03:02.500Z,99728.91
2018-02-03T10:05:30.878Z,99728.95
2018-02-03T10:07:59.251Z,99726.79
2018-02-03T10:10:27.595Z,99729.80
2018-02-03T10:12:55.940Z,99732.72
2018-02-03T10:15:24.282Z,99737.47
2018-02-03T10:17:52.667Z,99734.77
2018-02-03T10:20:21.096Z,99736.47
2018-02-03T10:22:49.933Z,99730.19
2018-02-03T10:25:18.312Z,99732.81
2018-02-03T10:27:46.658Z,99733.58
2018-02-03T10:30:15.064Z,99734.45
2018-02-03T10:32:43.452Z,99738.16
2018-02-03T10:35:11.807Z,99733.55
2018-02-03T10:37:40.202Z,99725.80
2018-02-03T10:40:08.658Z,99734.34
2018-02-03T10:42:37.003Z,99739.11
2018-02-03T10:45:05.360Z,99727.03
2018-02-03T10:47:33.713Z,99733.58
2018-02-03T10:50:02.080Z,99728.15
2018-02-03T10:52:30.450Z,99732.83
2018-02-03T10:54:58.792Z,99735.18
2018-02-03T10:57:27.125Z,99737.27
2018-02-03T10:59:55.468Z,99739.47
2018-02-03T11:02:24.305Z,99742.77
2018-02-03T11:04:52.672Z,99747.37
2018-02-03T11:07:21.064Z,99741.42
2018-02-03T11:09:49.491Z,99739.23
2018-02-03T11:12:18.339Z,99745.70
2018-02-03T11:14:46.760Z,99747.75
2018-02-03T11:17:15.603Z,99748.95
2018-02-03T11:19:43.990Z,99744.22
2018-02-03T11:22:12.558Z,99754.22
2018-02-03T11:24:41.050Z,99757.48
2018-02-03T11:27:09.401Z,99751.86
2018-02-03T11:29:37.753Z,99749.89
2018-02-03T11:32:06.583Z,99755.31
2018-02-03T11:34:34.929Z,99746.74
2018-02-03T11:37:03.286Z,99757.60
2018-02-03T11:39:31.650Z,99758.94
2018-02-03T11:42:00.103Z,99754.14
2018-02-03T11:44:28.449Z,99755.67
2018-02-03T11:46:56.892Z,99757.45
2018-02-03T11:49:25.228Z,99753.15
2018-02-03T11:51:53.644Z,99750.11
2018-02-03T11:54:22.020Z,99749.25
2018-02-03T11:56:50.392Z,99758.41
2018-02-03T11:59:18.755Z,99757.50
2018-02-03T12:01:47.141Z,99752.77
2018-02-03T12:04:15.494Z,99755.30
2018-02-03T12:06:43.841Z,99760.51
2018-02-03T12:09:12.215Z,99749.33
2018-02-03T12:11:41.107Z,99754.94
2018-02-03T12:14:09.956Z,99754.80
2018-02-03T12:16:38.848Z,99746.65
2018-02-03T12:19:07.225Z,99749.71
2018-02-03T12:21:35.612Z,99753.98
2018-02-03T12:24:03.959Z,99750.63
2018-02-03T12:26:32.340Z,99747.20
2018-02-03T12:29:02.675Z,99742.41
2018-02-03T12:31:31.048Z,99747.63
2018-02-03T12:33:59.396Z,99745.91
2018-02-03T12:36:27.798Z,99750.19
2018-02-03T12:38:56.187Z,99757.59
2018-02-03T12:41:24.520Z,99753.71
2018-02-03T12:43:54.304Z,99758.02
2018-02-03T12:46:22.642Z,99760.13
2018-02-03T12:48:50.987Z,99764.05
2018-02-03T12:51:19.829Z,99751.52
2018-02-03T12:53:48.179Z,99757.60
2018-02-03T12:56:16.574Z,99755.87
2018-02-03T12:58:44.964Z,99757.99
2018-02-03T13:01:13.388Z,99753.28
2018-02-03T13:03:42.144Z,99757.19
2018-02-03T13:06:10.520Z,99757.61
2018-02-03T13:08:38.911Z,99756.30
2018-02-03T13:11:08.272Z,99758.48
2018-02-03T13:13:36.634Z,99766.28
2018-02-03T13:16:05.359Z,99771.89
2018-02-03T13:18:34.522Z,99764.06
2018-02-03T13:21:02.867Z,99767.53
2018-02-03T13:23:31.207Z,99777.89
2018-02-03T13:25:59.828Z,99769.22
2018-02-03T13:28:28.279Z,99767.98
2018-02-03T13:30:56.666Z,99765.36
2018-02-03T13:33:25.058Z,99767.44
2018-02-03T13:35:53.518Z,99779.64
2018-02-03T13:38:21.871Z,99773.19
2018-02-03T13:40:50.275Z,99776.19
2018-02-03T13:43:18.628Z,99781.05
2018-02-03T13:45:47.724Z,99781.08
2018-02-03T13:48:16.135Z,99782.32
2018-02-03T13:50:44.484Z,99786.18
2018-02-03T13:53:12.884Z,99777.52
2018-02-03T13:55:41.244Z,99792.55
2018-02-03T13:58:09.587Z,99795.61
2018-02-03T14:00:38.404Z,99786.58
2018-02-03T14:03:06.803Z,99789.65
2018-02-03T14:05:35.207Z,99790.84
2018-02-03T14:08:03.568Z,99792.19
2018-02-03T14:10:31.950Z,99790.47
2018-02-03T14:13:00.320Z,99788.20
2018-02-03T14:15:28.642Z,99791.27
2018-02-03T14:17:57.386Z,99797.00
2018-02-03T14:20:25.768Z,99793.97
2018-02-03T14:22:54.145Z,99794.91
2018-02-03T14:25:22.497Z,99797.92
2018-02-03T14:27:50.832Z,99793.88
2018-02-03T14:30:19.368Z,99801.27
2018-02-03T14:32:47.776Z,99800.88
2018-02-03T14:35:16.148Z,99800.78
2018-02-03T14:37:44.501Z,99803.35
2018-02-03T14:40:12.934Z,99805.98
2018-02-03T14:42:41.700Z,99813.62
2018-02-03T14:45:10.172Z,99813.18
2018-02-03T14:47:38.614Z,99821.55
2018-02-03T14:50:06.956Z,99822.80
2018-02-03T14:52:35.295Z,99823.64
2018-02-03T14:55:03.653Z,99824.36
2018-02-03T14:57:32.065Z,99828.77
2018-02-03T15:00:00.442Z,99828.59
2018-02-03T15:02:28.804Z,99829.70
2018-02-03T15:04:57.131Z,99839.77
2018-02-03T15:07:25.504Z,99836.84
2018-02-03T15:09:53.844Z,99840.14
2018-02-03T15:12:22.289Z,99849.63
2018-02-03T15:14:51.051Z,99844.58
2018-02-03T15:17:19.393Z,99849.05
2018-02-03T15:19:47.774Z,99851.60
2018-02-03T15:22:16.111Z,99860.88
2018-02-03T15:24:44.850Z,99865.42
2018-02-03T15:27:13.207Z,99868.12
2018-02-03T15:29:41.549Z,99867.97
2018-02-03T15:32:10.428Z,99878.23
2018-02-03T15:34:38.775Z,99873.86
2018-02-03T15:37:07.111Z,99874.14
2018-02-03T15:39:35.533Z,99874.02
2018-02-03T15:42:03.919Z,99879.28
2018-02-03T15:44:32.388Z,99878.61
2018-02-03T15:47:00.748Z,99883.64
2018-02-03T15:49:29.100Z,99883.66
2018-02-03T15:51:57.936Z,99879.02
2018-02-03T15:54:26.284Z,99873.45
2018-02-03T15:56:55.135Z,99874.28
2018-02-03T15:59:23.494Z,99874.33
2018-02-03T16:01:51.840Z,99869.77
2018-02-03T16:04:20.188Z,99866.84
2018-02-03T16:06:48.932Z,99862.23
2018-02-03T16:09:17.296Z,99866.77
2018-02-03T16:11:45.646Z,99868.37
2018-02-03T16:14:14.062Z,99869.80
2018-02-03T16:16:42.414Z,99874.16
2018-02-03T16:19:10.815Z,99869.56
2018-02-03T16:21:39.175Z,99871.55
2018-02-03T16:24:07.515Z,99874.00
2018-02-03T16:26:36.251Z,99871.37
2018-02-03T16:29:04.596Z,99876.91
2018-02-03T16:31:33.464Z,99881.75
2018-02-03T16:34:02.220Z,99874.39
2018-02-03T16:36:30.595Z,99882.13
2018-02-03T16:38:58.939Z,99879.36
2018-02-03T16:41:27.292Z,99882.75
2018-02-03T16:43:55.632Z,99884.01
2018-02-03T16:46:24.265Z,99888.02
2018-02-03T16:48:53.189Z,99890.47
2018-02-03T16:51:21.572Z,99891.32
2018-02-03T16:53:49.991Z,99891.09
2018-02-03T16:56:24.996Z,99896.11
2018-02-03T16:58:53.481Z,99892.05
2018-02-03T17:01:21.855Z,99892.22
2018-02-03T17:03:50.384Z,99890.05
2018-02-03T17:06:19.229Z,99892.80
2018-02-03T17:08:47.784Z,99900.35
2018-02-03T17:11:16.131Z,99899.59
2018-02-03T17:13:44.551Z,99904.51
2018-02-03T17:16:12.896Z,99905.49
2018-02-03T17:18:41.673Z,99907.25
2018-02-03T17:21:10.016Z,99911.45
2018-02-03T17:23:38.380Z,99910.42
2018-02-03T17:26:06.732Z,99909.33
2018-02-03T17:28:35.157Z,99915.45
2018-02-03T17:31:03.508Z,99919.44
2018-02-03T17:33:31.880Z,99917.34
2018-02-03T17:36:00.224Z,99916.06
2018-02-03T17:38:34.202Z,99918.34
2018-02-03T17:41:02.655Z,99917.20
2018-02-03T17:43:31.149Z,99922.38
2018-02-03T17:46:05.071Z,99922.83
2018-02-03T17:48:33.412Z,99934.47
2018-02-03T17:51:01.768Z,99939.39
2018-02-03T17:53:30.507Z,99934.03
2018-02-03T17:56:04.294Z,99936.39
2018-02-03T17:58:32.696Z,99937.67
2018-02-03T18:01:01.041Z,99943.05
2018-02-03T18:03:29.418Z,99953.34
2018-02-03T18:05:57.832Z,99959.82
2018-02-03T18:08:26.197Z,99957.60
2018-02-03T18:10:54.584Z,99950.25
2018-02-03T18:13:22.936Z,99955.80
2018-02-03T18:15:51.293Z,99959.08
2018-02-03T18:18:20.243Z,99964.63
2018-02-03T18:20:48.622Z,99958.98
2018-02-03T18:23:16.959Z,99957.14
2018-02-03T18:25:45.300Z,99964.44
2018-02-03T18:28:13.666Z,99964.41
2018-02-03T18:30:42.015Z,99953.57
2018-02-03T18:33:10.375Z,99954.71
2018-02-03T18:35:38.783Z,99957.64
2018-02-03T18:38:07.144Z,99956.36
2018-02-03T18:40:35.563Z,99952.70
2018-02-03T18:43:04.343Z,99957.41
2018-02-03T18:45:44.361Z,99957.23
2018-02-03T18:48:12.859Z,99950.83
2018-02-03T18:50:41.245Z,99960.36
2018-02-03T18:53:09.603Z,99956.45
2018-02-03T18:55:37.963Z,99955.95
2018-02-03T18:58:06.376Z,99965.70
2018-02-03T19:00:34.724Z,99963.06
2018-02-03T19:03:03.081Z,99967.47
2018-02-03T19:05:31.936Z,99972.77
2018-02-03T19:08:00.299Z,99971.45
2018-02-03T19:10:28.867Z,99977.48
2018-02-03T19:12:57.269Z,99982.67
2018-02-03T19:15:25.609Z,99987.88
2018-02-03T19:17:54.032Z,99991.16
2018-02-03T19:20:22.377Z,99988.40
2018-02-03T19:22:50.747Z,99977.98
2018-02-03T19:25:19.090Z,99984.28
2018-02-03T19:27:47.473Z,99980.57
2018-02-03T19:30:15.876Z,99986.09
2018-02-03T19:32:44.804Z,99990.72
2018-02-03T19:35:13.173Z,99991.02
2018-02-03T19:37:41.519Z,99998.28
2018-02-03T19:40:09.866Z,99988.80
2018-02-03T19:42:38.626Z,99993.45
2018-02-03T19:45:06.975Z,100003.00
2018-02-03T19:47:35.392Z,100004.55
2018-02-03T19:50:03.734Z,100006.88
2018-02-03T19:52:32.093Z,100005.36
2018-02-03T19:55:00.851Z,100016.43
2018-02-03T19:57:29.227Z,100015.95
2018-02-03T19:59:57.600Z,100022.86
2018-02-03T20:02:25.949Z,100025.70
2018-02-03T20:04:54.292Z,100025.95
2018-02-03T20:07:23.144Z,100028.85
2018-02-03T20:09:51.498Z,100028.73
2018-02-03T20:12:19.864Z,100031.79
2018-02-03T20:14:48.239Z,100030.18
2018-02-03T20:17:16.660Z,100038.41
2018-02-03T20:19:45.040Z,100033.86
2018-02-03T20:22:13.395Z,100035.34
2018-02-03T20:24:41.808Z,100046.46
2018-02-03T20:27:10.160Z,100052.78
2018-02-03T20:29:38.515Z,100058.78
2018-02-03T20:32:06.884Z,100061.86
2018-02-03T20:34:35.231Z,100064.77
2018-02-03T20:37:03.709Z,100061.51
2018-02-03T20:39:32.108Z,100064.22
2018-02-03T20:42:00.956Z,100067.92
2018-02-03T20:44:29.336Z,100065.86
2018-02-03T20:46:57.703Z,100067.92
2018-02-03T20:49:26.072Z,100065.72
2018-02-03T20:51:54.415Z,100074.09
2018-02-03T20:54:23.255Z,100071.28
2018-02-03T20:56:51.635Z,100082.68
2018-02-03T20:59:19.979Z,100086.67
2018-02-03T21:01:48.745Z,100086.15
2018-02-03T21:04:17.480Z,100092.11
2018-02-03T21:06:45.837Z,100095.75
2018-02-03T21:09:14.251Z,100094.87
2018-02-03T21:11:42.658Z,100096.75
2018-02-03T21:14:10.981Z,100092.89
2018-02-03T21:16:39.388Z,100105.03
2018-02-03T21:19:07.760Z,100102.91
2018-02-03T21:21:36.221Z,100103.58
2018-02-03T21:24:04.615Z,100111.65
2018-02-03T21:26:32.974Z,100109.52
2018-02-03T21:29:01.375Z,100111.43
2018-02-03T21:31:29.735Z,100116.45
2018-02-03T21:33:58.175Z,100118.70
2018-02-03T21:36:26.513Z,100127.20
2018-02-03T21:38:54.884Z,100124.67
2018-02-03T21:41:23.232Z,100120.48
2018-02-03T21:43:51.976Z,100127.61
2018-02-03T21:46:20.323Z,100119.42
2018-02-03T21:48:48.701Z,100127.23
2018-02-03T21:51:17.073Z,100126.25
2018-02-03T21:53:45.477Z,100130.37
2018-02-03T21:56:13.820Z,100141.61
2018-02-03T21:58:42.239Z,100133.84
2018-02-03T22:01:10.711Z,100142.40
2018-02-03T22:03:39.098Z,100152.75
2018-02-03T22:06:07.468Z,100152.13
2018-02-03T22:08:35.825Z,100155.59
2018-02-03T22:11:04.178Z,100161.00
2018-02-03T22:13:32.661Z,100159.02
2018-02-03T22:16:01.497Z,100156.03
2018-02-03T22:18:29.867Z,100160.45
2018-02-03T22:20:58.212Z,100157.95
2018-02-03T22:23:26.971Z,100165.02
2018-02-03T22:25:55.327Z,100173.68
2018-02-03T22:28:23.706Z,100174.20
2018-02-03T22:30:52.056Z,100166.72
2018-02-03T22:33:20.495Z,100174.31
2018-02-03T22:35:48.965Z,100189.33
2018-02-03T22:38:17.315Z,100194.66
2018-02-03T22:40:45.708Z,100200.26
2018-02-03T22:43:14.182Z,100202.94
2018-02-03T22:45:42.528Z,100206.50
2018-02-03T22:48:11.040Z,100207.82
2018-02-03T22:50:39.384Z,100210.06
2018-02-03T22:53:07.748Z,100211.64
2018-02-03T22:55:36.499Z,100217.73
2018-02-03T22:58:04.852Z,100213.62
2018-02-03T23:00:35.706Z,100210.78
2018-02-03T23:03:01.728Z,100214.49
2018-02-03T23:05:30.086Z,100215.17
2018-02-03T23:07:58.455Z,100215.92
2018-02-03T23:10:26.806Z,100221.16
2018-02-03T23:12:55.585Z,100222.92
2018-02-03T23:15:23.925Z,100223.67
2018-02-03T23:17:52.318Z,100218.27
2018-02-03T23:20:20.671Z,100224.73
2018-02-03T23:22:49.029Z,100230.61
2018-02-03T23:25:17.457Z,100232.20
2018-02-03T23:27:45.828Z,100239.39
2018-02-03T23:30:14.185Z,100242.37
2018-02-03T23:32:42.576Z,100246.00
2018-02-03T23:35:10.960Z,100247.13
2018-02-03T23:37:39.852Z,100241.00
2018-02-03T23:40:08.228Z,100242.98
2018-02-03T23:42:36.576Z,100257.30
2018-02-03T23:45:04.955Z,100259.34
2018-02-03T23:47:33.361Z,100254.00
2018-02-03T23:50:01.748Z,100254.58
2018-02-03T23:52:30.107Z,100261.28
2018-02-03T23:54:58.460Z,100251.30
2018-02-03T23:57:26.868Z,100246.66
2018-02-03T23:59:55.219Z,100262.05
